Liguria — IRKJ — position and weather

sailwx.info

Track history (hours):
 
Tides and Currents Weather Stations Pressure Air Temp Water Temp Dewpoint Dewpoint Depression Visibility Wind Speed Wind Dir Waves Ship Positions

Liguria

Last reported at 2015-Jul-04 12:28 UTC. Time now 2015-Jul-05 12:52 UTC.
Position N 44°18' E 008°29'.

Length 30 m.

Type: Tug. MMSI: 247228500.

Date/timePositionNaut miles runAvg speedWind from/ knotsBaromVisibWave heightAir tempDewpointWater temp
2015-Jul-04 12:28N 44°18' E 008°29'0 0.0
2015-Jul-04 11:28N 44°18' E 008°29'0 0.0
2015-Jul-04 10:28N 44°18' E 008°29'0 0.0
2015-Jul-04 08:28N 44°18' E 008°29'2 2.1
2015-Jul-04 07:33N 44°17' E 008°28'0 0.3
2015-Jul-04 06:15N 44°17' E 008°28'1 1.1
2015-Jul-04 05:32N 44°16' E 008°28'3 0.2
2015-Jul-03 18:08N 44°18' E 008°29'0 0.5
2015-Jul-03 17:33N 44°19' E 008°29'0 0.1
2015-Jul-03 15:29N 44°18' E 008°29'0 0.0
2015-Jul-03 14:03N 44°19' E 008°29'0 0.0
2015-Jul-03 07:28N 44°18' E 008°29'0 0.0
2015-Jul-03 06:31N 44°18' E 008°29'0 0.0
2015-Jul-03 05:31N 44°18' E 008°29'0 0.0
2015-Jul-03 04:25N 44°18' E 008°29'0 0.0
2015-Jul-03 03:22N 44°18' E 008°29'0 0.0
2015-Jul-03 02:07N 44°18' E 008°29'0 0.0
2015-Jul-03 00:13N 44°18' E 008°29'0 0.0
2015-Jul-02 21:22N 44°18' E 008°29'0 0.0
2015-Jul-02 13:18N 44°19' E 008°29'3 2.6
2015-Jul-02 12:09N 44°16' E 008°27'1 1.2
2015-Jul-02 11:33N 44°17' E 008°28'2 0.1
2015-Jul-01 09:32N 44°18' E 008°29'0 0.0
2015-Jul-01 08:29N 44°18' E 008°29'2 0.7
2015-Jul-01 05:33N 44°17' E 008°28'1 0.9
2015-Jul-01 04:33N 44°16' E 008°27'3 0.3
2015-Jun-30 18:25N 44°18' E 008°29'1 0.7
2015-Jun-30 17:31N 44°19' E 008°30'0 0.0
2015-Jun-30 16:25N 44°19' E 008°30'0 0.0
2015-Jun-30 15:28N 44°19' E 008°30'1 0.0
2015-Jun-28 11:32N 44°18' E 008°29'0 0.0
2015-Jun-28 10:32N 44°18' E 008°29'0 0.0
2015-Jun-28 07:29N 44°18' E 008°29'2 2.3
2015-Jun-28 06:31N 44°17' E 008°28'0 0.2
2015-Jun-28 05:31N 44°16' E 008°28'2 2.1
2015-Jun-28 04:32N 44°18' E 008°30'1 0.1
2015-Jun-27 11:14N 44°18' E 008°29'0 0.0
2015-Jun-27 10:32N 44°18' E 008°29'0 0.0
2015-Jun-27 09:32N 44°18' E 008°29'0 0.0
2015-Jun-27 08:32N 44°18' E 008°29'0 0.0
2015-Jun-27 07:14N 44°18' E 008°29'0 0.0
2015-Jun-27 06:32N 44°18' E 008°29'0 0.0
2015-Jun-27 05:32N 44°18' E 008°29'0 0.0
2015-Jun-27 04:32N 44°18' E 008°29'0 0.0
2015-Jun-26 12:11N 44°18' E 008°29'0 0.0
2015-Jun-26 11:29N 44°18' E 008°29'0 0.0
2015-Jun-26 10:32N 44°18' E 008°29'0 0.0
2015-Jun-26 09:32N 44°18' E 008°29'0 0.0
2015-Jun-26 08:23N 44°18' E 008°29'0 0.0
2015-Jun-26 07:29N 44°18' E 008°29'0 0.0
2015-Jun-26 06:29N 44°18' E 008°29'0 0.0
2015-Jun-26 05:11N 44°18' E 008°29'0 0.0
2015-Jun-26 04:23N 44°18' E 008°29'0 0.0
2015-Jun-26 03:29N 44°18' E 008°29'0 0.0
2015-Jun-26 02:29N 44°18' E 008°29'0 0.0
2015-Jun-26 01:29N 44°18' E 008°29'0 0.0
2015-Jun-26 00:29N 44°18' E 008°29'0 0.0
2015-Jun-25 23:29N 44°18' E 008°29'0 0.0
2015-Jun-25 22:32N 44°18' E 008°29'0 0.0
2015-Jun-25 13:12N 44°18' E 008°29'0 0.0
2015-Jun-25 12:33N 44°18' E 008°29'3 2.7
2015-Jun-25 11:33N 44°16' E 008°27'0 0.4
2015-Jun-25 10:32N 44°16' E 008°27'0 0.0
2015-Jun-25 09:32N 44°16' E 008°27'0 0.0
2015-Jun-25 08:30N 44°16' E 008°27'1 1.1
2015-Jun-25 07:33N 44°17' E 008°27'0 0.0
2015-Jun-25 06:33N 44°17' E 008°28'1 0.9
2015-Jun-25 05:33N 44°16' E 008°28'3 2.5
2015-Jun-25 04:28N 44°18' E 008°29'0 0.0
2015-Jun-24 18:21N 44°18' E 008°29'3 3.9
2015-Jun-24 17:33N 44°16' E 008°27'3 1.0
2015-Jun-24 14:32N 44°18' E 008°29'0 0.0
2015-Jun-24 13:32N 44°18' E 008°29'  
Track history (hours):
 
Tides and Currents Weather Stations Pressure Air Temp Water Temp Dewpoint Dewpoint Depression Visibility Wind Speed Wind Dir Waves Ship Positions

Liguria

Last reported at 2015-Jul-04 12:28 UTC. Time now 2015-Jul-05 12:52 UTC.
Position N 44°18' E 008°29'.

Length 30 m.

Type: Tug. MMSI: 247228500.

Date/timePositionNaut miles runAvg speedWind from/ knotsBaromVisibWave heightAir tempDewpointWater temp
2015-Jul-04 12:28N 44°18' E 008°29'0 0.0
2015-Jul-04 11:28N 44°18' E 008°29'0 0.0
2015-Jul-04 10:28N 44°18' E 008°29'0 0.0
2015-Jul-04 08:28N 44°18' E 008°29'2 2.1
2015-Jul-04 07:33N 44°17' E 008°28'0 0.3
2015-Jul-04 06:15N 44°17' E 008°28'1 1.1
2015-Jul-04 05:32N 44°16' E 008°28'3 0.2
2015-Jul-03 18:08N 44°18' E 008°29'0 0.5
2015-Jul-03 17:33N 44°19' E 008°29'0 0.1
2015-Jul-03 15:29N 44°18' E 008°29'0 0.0
2015-Jul-03 14:03N 44°19' E 008°29'0 0.0
2015-Jul-03 07:28N 44°18' E 008°29'0 0.0
2015-Jul-03 06:31N 44°18' E 008°29'0 0.0
2015-Jul-03 05:31N 44°18' E 008°29'0 0.0
2015-Jul-03 04:25N 44°18' E 008°29'0 0.0
2015-Jul-03 03:22N 44°18' E 008°29'0 0.0
2015-Jul-03 02:07N 44°18' E 008°29'0 0.0
2015-Jul-03 00:13N 44°18' E 008°29'0 0.0
2015-Jul-02 21:22N 44°18' E 008°29'0 0.0
2015-Jul-02 13:18N 44°19' E 008°29'3 2.6
2015-Jul-02 12:09N 44°16' E 008°27'1 1.2
2015-Jul-02 11:33N 44°17' E 008°28'2 0.1
2015-Jul-01 09:32N 44°18' E 008°29'0 0.0
2015-Jul-01 08:29N 44°18' E 008°29'2 0.7
2015-Jul-01 05:33N 44°17' E 008°28'1 0.9
2015-Jul-01 04:33N 44°16' E 008°27'3 0.3
2015-Jun-30 18:25N 44°18' E 008°29'1 0.7
2015-Jun-30 17:31N 44°19' E 008°30'0 0.0
2015-Jun-30 16:25N 44°19' E 008°30'0 0.0
2015-Jun-30 15:28N 44°19' E 008°30'1 0.0
2015-Jun-28 11:32N 44°18' E 008°29'0 0.0
2015-Jun-28 10:32N 44°18' E 008°29'0 0.0
2015-Jun-28 07:29N 44°18' E 008°29'2 2.3
2015-Jun-28 06:31N 44°17' E 008°28'0 0.2
2015-Jun-28 05:31N 44°16' E 008°28'2 2.1
2015-Jun-28 04:32N 44°18' E 008°30'1 0.1
2015-Jun-27 11:14N 44°18' E 008°29'0 0.0
2015-Jun-27 10:32N 44°18' E 008°29'0 0.0
2015-Jun-27 09:32N 44°18' E 008°29'0 0.0
2015-Jun-27 08:32N 44°18' E 008°29'0 0.0
2015-Jun-27 07:14N 44°18' E 008°29'0 0.0
2015-Jun-27 06:32N 44°18' E 008°29'0 0.0
2015-Jun-27 05:32N 44°18' E 008°29'0 0.0
2015-Jun-27 04:32N 44°18' E 008°29'0 0.0
2015-Jun-26 12:11N 44°18' E 008°29'0 0.0
2015-Jun-26 11:29N 44°18' E 008°29'0 0.0
2015-Jun-26 10:32N 44°18' E 008°29'0 0.0
2015-Jun-26 09:32N 44°18' E 008°29'0 0.0
2015-Jun-26 08:23N 44°18' E 008°29'0 0.0
2015-Jun-26 07:29N 44°18' E 008°29'0 0.0
2015-Jun-26 06:29N 44°18' E 008°29'0 0.0
2015-Jun-26 05:11N 44°18' E 008°29'0 0.0
2015-Jun-26 04:23N 44°18' E 008°29'0 0.0
2015-Jun-26 03:29N 44°18' E 008°29'0 0.0
2015-Jun-26 02:29N 44°18' E 008°29'0 0.0
2015-Jun-26 01:29N 44°18' E 008°29'0 0.0
2015-Jun-26 00:29N 44°18' E 008°29'0 0.0
2015-Jun-25 23:29N 44°18' E 008°29'0 0.0
2015-Jun-25 22:32N 44°18' E 008°29'0 0.0
2015-Jun-25 13:12N 44°18' E 008°29'0 0.0
2015-Jun-25 12:33N 44°18' E 008°29'3 2.7
2015-Jun-25 11:33N 44°16' E 008°27'0 0.4
2015-Jun-25 10:32N 44°16' E 008°27'0 0.0
2015-Jun-25 09:32N 44°16' E 008°27'0 0.0
2015-Jun-25 08:30N 44°16' E 008°27'1 1.1
2015-Jun-25 07:33N 44°17' E 008°27'0 0.0
2015-Jun-25 06:33N 44°17' E 008°28'1 0.9
2015-Jun-25 05:33N 44°16' E 008°28'3 2.5
2015-Jun-25 04:28N 44°18' E 008°29'0 0.0
2015-Jun-24 18:21N 44°18' E 008°29'3 3.9
2015-Jun-24 17:33N 44°16' E 008°27'3 1.0
2015-Jun-24 14:32N 44°18' E 008°29'0 0.0
2015-Jun-24 13:32N 44°18' E 008°29'  

Dump ship's entire track history